sensor_id;sensor_type;location;lat;lon;timestamp;P1;durP1;ratioP1;P2;durP2;ratioP2
1837;SDS011;918;50.796;6.772;2023-01-10T00:00:38;3.63;;;3.30;;
1837;SDS011;918;50.796;6.772;2023-01-10T00:03:04;5.47;;;3.60;;
1837;SDS011;918;50.796;6.772;2023-01-10T00:05:33;7.80;;;4.30;;
1837;SDS011;918;50.796;6.772;2023-01-10T00:07:59;9.40;;;5.23;;
1837;SDS011;918;50.796;6.772;2023-01-10T00:10:26;7.80;;;4.53;;
1837;SDS011;918;50.796;6.772;2023-01-10T00:12:51;7.50;;;3.70;;
1837;SDS011;918;50.796;6.772;2023-01-10T00:15:35;6.10;;;3.70;;
1837;SDS011;918;50.796;6.772;2023-01-10T00:18:01;6.53;;;3.93;;
1837;SDS011;918;50.796;6.772;2023-01-10T00:20:26;4.83;;;3.13;;
1837;SDS011;918;50.796;6.772;2023-01-10T00:22:52;5.93;;;3.30;;
1837;SDS011;918;50.796;6.772;2023-01-10T00:25:17;5.40;;;2.60;;
1837;SDS011;918;50.796;6.772;2023-01-10T00:27:45;5.17;;;2.77;;
1837;SDS011;918;50.796;6.772;2023-01-10T00:30:17;7.57;;;3.07;;
1837;SDS011;918;50.796;6.772;2023-01-10T00:32:43;6.37;;;3.70;;
1837;SDS011;918;50.796;6.772;2023-01-10T00:35:09;12.63;;;4.90;;
1837;SDS011;918;50.796;6.772;2023-01-10T00:37:35;10.13;;;4.77;;
1837;SDS011;918;50.796;6.772;2023-01-10T00:40:01;5.43;;;4.00;;
1837;SDS011;918;50.796;6.772;2023-01-10T00:42:26;9.23;;;5.00;;
1837;SDS011;918;50.796;6.772;2023-01-10T00:45:10;7.10;;;4.47;;
1837;SDS011;918;50.796;6.772;2023-01-10T00:47:36;10.03;;;4.40;;
1837;SDS011;918;50.796;6.772;2023-01-10T00:50:01;6.73;;;4.97;;
1837;SDS011;918;50.796;6.772;2023-01-10T00:52:28;8.17;;;3.10;;
1837;SDS011;918;50.796;6.772;2023-01-10T00:54:54;4.47;;;3.70;;
1837;SDS011;918;50.796;6.772;2023-01-10T00:57:19;5.70;;;3.83;;
1837;SDS011;918;50.796;6.772;2023-01-10T00:59:44;10.33;;;4.60;;
1837;SDS011;918;50.796;6.772;2023-01-10T01:02:10;6.70;;;4.20;;
1837;SDS011;918;50.796;6.772;2023-01-10T01:04:35;6.17;;;3.73;;
1837;SDS011;918;50.796;6.772;2023-01-10T01:07:00;5.47;;;3.80;;
1837;SDS011;918;50.796;6.772;2023-01-10T01:09:26;6.03;;;4.40;;
1837;SDS011;918;50.796;6.772;2023-01-10T01:11:53;9.03;;;3.83;;
1837;SDS011;918;50.796;6.772;2023-01-10T01:14:20;9.83;;;4.00;;
1837;SDS011;918;50.796;6.772;2023-01-10T01:16:45;6.60;;;3.83;;
1837;SDS011;918;50.796;6.772;2023-01-10T01:19:10;9.17;;;4.50;;
1837;SDS011;918;50.796;6.772;2023-01-10T01:21:36;6.33;;;4.83;;
1837;SDS011;918;50.796;6.772;2023-01-10T01:24:01;7.83;;;3.90;;
1837;SDS011;918;50.796;6.772;2023-01-10T01:26:26;9.70;;;4.90;;
1837;SDS011;918;50.796;6.772;2023-01-10T01:28:52;8.73;;;4.30;;
1837;SDS011;918;50.796;6.772;2023-01-10T01:31:17;6.03;;;4.23;;
1837;SDS011;918;50.796;6.772;2023-01-10T01:33:43;7.83;;;4.83;;
1837;SDS011;918;50.796;6.772;2023-01-10T01:36:09;10.57;;;4.70;;
1837;SDS011;918;50.796;6.772;2023-01-10T01:38:36;5.80;;;3.97;;
1837;SDS011;918;50.796;6.772;2023-01-10T01:41:02;4.83;;;4.10;;
1837;SDS011;918;50.796;6.772;2023-01-10T01:43:28;7.10;;;4.60;;
1837;SDS011;918;50.796;6.772;2023-01-10T01:45:56;6.43;;;4.70;;
1837;SDS011;918;50.796;6.772;2023-01-10T01:51:16;8.07;;;4.90;;
1837;SDS011;918;50.796;6.772;2023-01-10T01:53:48;8.23;;;4.63;;
1837;SDS011;918;50.796;6.772;2023-01-10T01:56:16;10.70;;;6.37;;
1837;SDS011;918;50.796;6.772;2023-01-10T01:58:46;6.43;;;4.20;;
1837;SDS011;918;50.796;6.772;2023-01-10T02:01:14;8.20;;;4.80;;
1837;SDS011;918;50.796;6.772;2023-01-10T02:03:40;5.37;;;4.20;;
1837;SDS011;918;50.796;6.772;2023-01-10T02:06:07;8.30;;;5.17;;
1837;SDS011;918;50.796;6.772;2023-01-10T02:08:32;10.50;;;4.60;;
1837;SDS011;918;50.796;6.772;2023-01-10T02:11:10;9.57;;;4.30;;
1837;SDS011;918;50.796;6.772;2023-01-10T02:13:44;6.20;;;4.30;;
1837;SDS011;918;50.796;6.772;2023-01-10T02:16:10;8.17;;;4.30;;
1837;SDS011;918;50.796;6.772;2023-01-10T02:18:36;9.27;;;4.27;;
1837;SDS011;918;50.796;6.772;2023-01-10T02:24:03;8.97;;;4.23;;
1837;SDS011;918;50.796;6.772;2023-01-10T02:38:03;7.77;;;4.10;;
1837;SDS011;918;50.796;6.772;2023-01-10T02:43:08;7.80;;;3.80;;
1837;SDS011;918;50.796;6.772;2023-01-10T02:45:37;9.73;;;4.07;;
1837;SDS011;918;50.796;6.772;2023-01-10T02:48:06;10.50;;;3.90;;
1837;SDS011;918;50.796;6.772;2023-01-10T02:53:04;10.33;;;3.90;;
1837;SDS011;918;50.796;6.772;2023-01-10T02:55:43;5.93;;;3.67;;
1837;SDS011;918;50.796;6.772;2023-01-10T02:58:24;6.50;;;3.23;;
1837;SDS011;918;50.796;6.772;2023-01-10T03:01:05;7.90;;;4.63;;
1837;SDS011;918;50.796;6.772;2023-01-10T03:03:50;5.33;;;3.23;;
1837;SDS011;918;50.796;6.772;2023-01-10T03:11:47;9.60;;;3.30;;
1837;SDS011;918;50.796;6.772;2023-01-10T03:14:15;7.97;;;4.03;;
1837;SDS011;918;50.796;6.772;2023-01-10T03:16:45;6.33;;;3.57;;
1837;SDS011;918;50.796;6.772;2023-01-10T03:19:18;8.50;;;3.53;;
1837;SDS011;918;50.796;6.772;2023-01-10T03:21:45;10.20;;;3.90;;
1837;SDS011;918;50.796;6.772;2023-01-10T03:24:17;9.27;;;4.23;;
1837;SDS011;918;50.796;6.772;2023-01-10T03:26:50;9.03;;;4.03;;
1837;SDS011;918;50.796;6.772;2023-01-10T03:29:20;10.10;;;3.93;;
1837;SDS011;918;50.796;6.772;2023-01-10T03:31:51;7.80;;;3.80;;
1837;SDS011;918;50.796;6.772;2023-01-10T03:34:19;9.37;;;3.60;;
1837;SDS011;918;50.796;6.772;2023-01-10T03:36:52;9.00;;;3.93;;
1837;SDS011;918;50.796;6.772;2023-01-10T03:45:20;5.70;;;3.87;;
1837;SDS011;918;50.796;6.772;2023-01-10T03:47:50;9.23;;;3.43;;
1837;SDS011;918;50.796;6.772;2023-01-10T03:50:19;4.30;;;3.20;;
1837;SDS011;918;50.796;6.772;2023-01-10T03:52:45;7.23;;;3.43;;
1837;SDS011;918;50.796;6.772;2023-01-10T03:55:12;6.50;;;3.43;;
1837;SDS011;918;50.796;6.772;2023-01-10T03:57:41;6.27;;;3.80;;
1837;SDS011;918;50.796;6.772;2023-01-10T04:00:07;8.53;;;3.90;;
1837;SDS011;918;50.796;6.772;2023-01-10T04:02:33;7.30;;;4.30;;
1837;SDS011;918;50.796;6.772;2023-01-10T04:04:58;6.23;;;3.23;;
1837;SDS011;918;50.796;6.772;2023-01-10T04:07:24;4.60;;;3.03;;
1837;SDS011;918;50.796;6.772;2023-01-10T04:09:49;8.70;;;3.40;;
1837;SDS011;918;50.796;6.772;2023-01-10T04:12:14;8.17;;;3.50;;
1837;SDS011;918;50.796;6.772;2023-01-10T04:14:40;9.37;;;3.47;;
1837;SDS011;918;50.796;6.772;2023-01-10T04:17:05;6.53;;;3.83;;
1837;SDS011;918;50.796;6.772;2023-01-10T04:19:30;8.97;;;3.43;;
1837;SDS011;918;50.796;6.772;2023-01-10T04:21:55;6.80;;;3.57;;
1837;SDS011;918;50.796;6.772;2023-01-10T04:24:21;7.17;;;3.70;;
1837;SDS011;918;50.796;6.772;2023-01-10T04:26:46;11.87;;;3.60;;
1837;SDS011;918;50.796;6.772;2023-01-10T04:29:12;6.60;;;3.47;;
1837;SDS011;918;50.796;6.772;2023-01-10T04:31:37;9.33;;;3.83;;
1837;SDS011;918;50.796;6.772;2023-01-10T04:34:04;9.20;;;3.53;;
1837;SDS011;918;50.796;6.772;2023-01-10T04:36:30;8.87;;;3.77;;
1837;SDS011;918;50.796;6.772;2023-01-10T04:38:55;8.60;;;3.50;;
1837;SDS011;918;50.796;6.772;2023-01-10T04:41:20;9.20;;;4.67;;
1837;SDS011;918;50.796;6.772;2023-01-10T04:43:45;9.93;;;3.83;;
1837;SDS011;918;50.796;6.772;2023-01-10T04:46:10;7.30;;;3.60;;
1837;SDS011;918;50.796;6.772;2023-01-10T04:48:36;8.93;;;3.43;;
1837;SDS011;918;50.796;6.772;2023-01-10T04:51:01;8.70;;;3.87;;
1837;SDS011;918;50.796;6.772;2023-01-10T04:53:26;8.70;;;3.87;;
1837;SDS011;918;50.796;6.772;2023-01-10T04:55:52;7.67;;;3.27;;
1837;SDS011;918;50.796;6.772;2023-01-10T04:58:17;7.37;;;3.30;;
1837;SDS011;918;50.796;6.772;2023-01-10T05:00:42;10.33;;;3.87;;
1837;SDS011;918;50.796;6.772;2023-01-10T05:03:07;7.30;;;3.87;;
1837;SDS011;918;50.796;6.772;2023-01-10T05:05:33;11.33;;;3.80;;
1837;SDS011;918;50.796;6.772;2023-01-10T05:07:58;11.30;;;5.73;;
1837;SDS011;918;50.796;6.772;2023-01-10T05:10:23;9.87;;;4.57;;
1837;SDS011;918;50.796;6.772;2023-01-10T05:12:48;7.60;;;3.43;;
1837;SDS011;918;50.796;6.772;2023-01-10T05:15:14;6.10;;;3.33;;
1837;SDS011;918;50.796;6.772;2023-01-10T05:17:39;9.30;;;3.77;;
1837;SDS011;918;50.796;6.772;2023-01-10T05:20:04;9.87;;;4.10;;
1837;SDS011;918;50.796;6.772;2023-01-10T05:22:30;8.40;;;3.20;;
1837;SDS011;918;50.796;6.772;2023-01-10T05:24:55;8.17;;;3.77;;
1837;SDS011;918;50.796;6.772;2023-01-10T05:27:21;5.53;;;3.50;;
1837;SDS011;918;50.796;6.772;2023-01-10T05:29:46;7.63;;;3.50;;
1837;SDS011;918;50.796;6.772;2023-01-10T05:32:11;8.67;;;4.07;;
1837;SDS011;918;50.796;6.772;2023-01-10T05:34:36;8.27;;;4.83;;
1837;SDS011;918;50.796;6.772;2023-01-10T05:37:02;9.70;;;4.00;;
1837;SDS011;918;50.796;6.772;2023-01-10T05:39:27;8.97;;;4.50;;
1837;SDS011;918;50.796;6.772;2023-01-10T05:41:52;10.83;;;4.33;;
1837;SDS011;918;50.796;6.772;2023-01-10T05:44:18;5.73;;;3.90;;
1837;SDS011;918;50.796;6.772;2023-01-10T05:46:43;5.90;;;3.90;;
1837;SDS011;918;50.796;6.772;2023-01-10T05:49:08;8.83;;;4.50;;
1837;SDS011;918;50.796;6.772;2023-01-10T05:51:34;9.40;;;4.07;;
1837;SDS011;918;50.796;6.772;2023-01-10T05:53:59;11.43;;;4.23;;
1837;SDS011;918;50.796;6.772;2023-01-10T05:56:24;8.17;;;4.30;;
1837;SDS011;918;50.796;6.772;2023-01-10T05:58:50;12.77;;;5.40;;
1837;SDS011;918;50.796;6.772;2023-01-10T06:01:15;11.03;;;4.20;;
1837;SDS011;918;50.796;6.772;2023-01-10T06:03:41;10.00;;;3.97;;
1837;SDS011;918;50.796;6.772;2023-01-10T06:06:06;12.53;;;3.97;;
1837;SDS011;918;50.796;6.772;2023-01-10T06:08:32;10.03;;;4.47;;
1837;SDS011;918;50.796;6.772;2023-01-10T06:10:57;10.50;;;4.30;;
1837;SDS011;918;50.796;6.772;2023-01-10T06:13:22;9.57;;;4.10;;
1837;SDS011;918;50.796;6.772;2023-01-10T06:15:48;13.47;;;4.33;;
1837;SDS011;918;50.796;6.772;2023-01-10T06:18:13;8.37;;;4.20;;
1837;SDS011;918;50.796;6.772;2023-01-10T06:20:39;15.10;;;4.57;;
1837;SDS011;918;50.796;6.772;2023-01-10T06:23:05;10.50;;;4.87;;
1837;SDS011;918;50.796;6.772;2023-01-10T06:25:31;9.60;;;4.80;;
1837;SDS011;918;50.796;6.772;2023-01-10T06:27:59;9.30;;;6.20;;
1837;SDS011;918;50.796;6.772;2023-01-10T06:30:25;8.50;;;4.77;;
1837;SDS011;918;50.796;6.772;2023-01-10T06:32:50;9.93;;;5.60;;
1837;SDS011;918;50.796;6.772;2023-01-10T06:35:15;8.97;;;4.30;;
1837;SDS011;918;50.796;6.772;2023-01-10T06:37:42;8.30;;;4.73;;
1837;SDS011;918;50.796;6.772;2023-01-10T06:40:07;8.20;;;5.03;;
1837;SDS011;918;50.796;6.772;2023-01-10T06:42:33;10.20;;;5.17;;
1837;SDS011;918;50.796;6.772;2023-01-10T06:44:59;11.87;;;4.97;;
1837;SDS011;918;50.796;6.772;2023-01-10T06:47:24;9.10;;;5.73;;
1837;SDS011;918;50.796;6.772;2023-01-10T06:49:49;8.00;;;4.80;;
1837;SDS011;918;50.796;6.772;2023-01-10T06:52:14;12.67;;;4.93;;
1837;SDS011;918;50.796;6.772;2023-01-10T06:54:39;11.23;;;5.40;;
1837;SDS011;918;50.796;6.772;2023-01-10T06:57:06;9.40;;;5.30;;
1837;SDS011;918;50.796;6.772;2023-01-10T06:59:32;8.90;;;5.50;;
1837;SDS011;918;50.796;6.772;2023-01-10T07:01:57;9.00;;;5.07;;
1837;SDS011;918;50.796;6.772;2023-01-10T07:04:22;11.53;;;6.60;;
1837;SDS011;918;50.796;6.772;2023-01-10T07:06:47;11.57;;;5.57;;
1837;SDS011;918;50.796;6.772;2023-01-10T07:09:13;9.57;;;5.20;;
1837;SDS011;918;50.796;6.772;2023-01-10T07:11:38;13.50;;;5.20;;
1837;SDS011;918;50.796;6.772;2023-01-10T07:14:03;13.27;;;6.63;;
1837;SDS011;918;50.796;6.772;2023-01-10T07:16:29;12.80;;;6.57;;
1837;SDS011;918;50.796;6.772;2023-01-10T07:18:54;9.57;;;6.40;;
1837;SDS011;918;50.796;6.772;2023-01-10T07:21:19;14.33;;;4.77;;
1837;SDS011;918;50.796;6.772;2023-01-10T07:23:48;8.47;;;5.30;;
1837;SDS011;918;50.796;6.772;2023-01-10T07:26:14;15.53;;;5.73;;
1837;SDS011;918;50.796;6.772;2023-01-10T07:28:41;20.23;;;6.70;;
1837;SDS011;918;50.796;6.772;2023-01-10T07:31:11;11.77;;;7.83;;
1837;SDS011;918;50.796;6.772;2023-01-10T07:33:37;15.43;;;5.90;;
1837;SDS011;918;50.796;6.772;2023-01-10T07:36:02;14.80;;;6.37;;
1837;SDS011;918;50.796;6.772;2023-01-10T07:38:28;13.10;;;5.53;;
1837;SDS011;918;50.796;6.772;2023-01-10T07:40:53;11.33;;;6.10;;
1837;SDS011;918;50.796;6.772;2023-01-10T07:43:19;13.07;;;5.73;;
1837;SDS011;918;50.796;6.772;2023-01-10T07:45:44;10.20;;;5.30;;
1837;SDS011;918;50.796;6.772;2023-01-10T07:48:10;12.70;;;6.33;;
1837;SDS011;918;50.796;6.772;2023-01-10T07:50:35;11.53;;;4.73;;
1837;SDS011;918;50.796;6.772;2023-01-10T07:53:02;11.17;;;4.63;;
1837;SDS011;918;50.796;6.772;2023-01-10T07:55:28;9.37;;;5.70;;
1837;SDS011;918;50.796;6.772;2023-01-10T07:57:54;11.30;;;4.90;;
1837;SDS011;918;50.796;6.772;2023-01-10T08:00:19;6.90;;;5.33;;
1837;SDS011;918;50.796;6.772;2023-01-10T08:02:45;7.60;;;5.00;;
1837;SDS011;918;50.796;6.772;2023-01-10T08:05:11;12.27;;;5.77;;
1837;SDS011;918;50.796;6.772;2023-01-10T08:07:37;7.93;;;4.87;;
1837;SDS011;918;50.796;6.772;2023-01-10T08:10:05;14.80;;;5.70;;
1837;SDS011;918;50.796;6.772;2023-01-10T08:12:31;6.90;;;5.47;;
1837;SDS011;918;50.796;6.772;2023-01-10T08:14:57;10.07;;;4.60;;
1837;SDS011;918;50.796;6.772;2023-01-10T08:17:22;14.43;;;4.57;;
1837;SDS011;918;50.796;6.772;2023-01-10T08:19:48;12.33;;;4.97;;
1837;SDS011;918;50.796;6.772;2023-01-10T08:22:13;13.90;;;5.27;;
1837;SDS011;918;50.796;6.772;2023-01-10T08:24:38;14.53;;;5.60;;
1837;SDS011;918;50.796;6.772;2023-01-10T08:27:03;9.43;;;5.83;;
1837;SDS011;918;50.796;6.772;2023-01-10T08:29:29;6.83;;;4.20;;
1837;SDS011;918;50.796;6.772;2023-01-10T08:31:55;13.33;;;4.93;;
1837;SDS011;918;50.796;6.772;2023-01-10T08:34:20;9.73;;;4.87;;
1837;SDS011;918;50.796;6.772;2023-01-10T08:36:48;9.60;;;4.87;;
1837;SDS011;918;50.796;6.772;2023-01-10T08:39:14;16.47;;;6.10;;
1837;SDS011;918;50.796;6.772;2023-01-10T08:41:40;9.73;;;4.67;;
1837;SDS011;918;50.796;6.772;2023-01-10T08:44:05;13.50;;;4.83;;
1837;SDS011;918;50.796;6.772;2023-01-10T08:46:30;22.50;;;6.20;;
1837;SDS011;918;50.796;6.772;2023-01-10T08:48:55;10.87;;;5.33;;
1837;SDS011;918;50.796;6.772;2023-01-10T08:51:21;14.10;;;4.60;;
1837;SDS011;918;50.796;6.772;2023-01-10T08:53:46;13.70;;;4.63;;
1837;SDS011;918;50.796;6.772;2023-01-10T08:56:12;8.60;;;3.33;;
1837;SDS011;918;50.796;6.772;2023-01-10T08:58:37;7.47;;;3.50;;
1837;SDS011;918;50.796;6.772;2023-01-10T09:01:03;12.07;;;4.30;;
1837;SDS011;918;50.796;6.772;2023-01-10T09:03:29;9.43;;;3.23;;
1837;SDS011;918;50.796;6.772;2023-01-10T09:05:57;8.33;;;3.97;;
1837;SDS011;918;50.796;6.772;2023-01-10T09:08:22;7.50;;;3.90;;
1837;SDS011;918;50.796;6.772;2023-01-10T09:10:47;7.20;;;3.33;;
1837;SDS011;918;50.796;6.772;2023-01-10T09:13:13;9.70;;;3.03;;
1837;SDS011;918;50.796;6.772;2023-01-10T09:15:38;6.37;;;3.27;;
1837;SDS011;918;50.796;6.772;2023-01-10T09:18:04;8.07;;;3.23;;
1837;SDS011;918;50.796;6.772;2023-01-10T09:20:32;10.67;;;3.77;;
1837;SDS011;918;50.796;6.772;2023-01-10T09:23:01;9.37;;;4.10;;
1837;SDS011;918;50.796;6.772;2023-01-10T09:25:29;11.20;;;3.77;;
1837;SDS011;918;50.796;6.772;2023-01-10T09:27:55;15.57;;;5.00;;
1837;SDS011;918;50.796;6.772;2023-01-10T09:30:21;12.33;;;3.43;;
1837;SDS011;918;50.796;6.772;2023-01-10T09:32:50;8.03;;;3.43;;
1837;SDS011;918;50.796;6.772;2023-01-10T09:35:16;11.70;;;3.53;;
1837;SDS011;918;50.796;6.772;2023-01-10T09:37:41;11.13;;;4.03;;
1837;SDS011;918;50.796;6.772;2023-01-10T09:40:07;10.67;;;2.97;;
1837;SDS011;918;50.796;6.772;2023-01-10T09:42:47;9.83;;;3.67;;
1837;SDS011;918;50.796;6.772;2023-01-10T09:48:14;12.73;;;3.80;;
1837;SDS011;918;50.796;6.772;2023-01-10T09:54:00;11.67;;;3.60;;
1837;SDS011;918;50.796;6.772;2023-01-10T09:56:26;8.30;;;2.90;;
1837;SDS011;918;50.796;6.772;2023-01-10T09:58:53;7.80;;;3.27;;
1837;SDS011;918;50.796;6.772;2023-01-10T10:01:20;12.97;;;3.67;;
1837;SDS011;918;50.796;6.772;2023-01-10T10:03:49;8.03;;;3.00;;
1837;SDS011;918;50.796;6.772;2023-01-10T10:06:31;13.30;;;3.47;;
1837;SDS011;918;50.796;6.772;2023-01-10T10:08:58;5.33;;;3.07;;
1837;SDS011;918;50.796;6.772;2023-01-10T10:11:30;14.73;;;3.60;;
1837;SDS011;918;50.796;6.772;2023-01-10T10:33:24;8.43;;;3.00;;
1837;SDS011;918;50.796;6.772;2023-01-10T10:36:11;10.73;;;3.30;;
1837;SDS011;918;50.796;6.772;2023-01-10T10:38:41;10.33;;;3.80;;
1837;SDS011;918;50.796;6.772;2023-01-10T10:41:13;13.33;;;3.40;;
1837;SDS011;918;50.796;6.772;2023-01-10T10:43:41;10.97;;;4.03;;
1837;SDS011;918;50.796;6.772;2023-01-10T10:46:11;10.90;;;3.60;;
1837;SDS011;918;50.796;6.772;2023-01-10T10:48:40;10.27;;;3.93;;
1837;SDS011;918;50.796;6.772;2023-01-10T10:51:21;7.30;;;3.10;;
1837;SDS011;918;50.796;6.772;2023-01-10T10:53:49;7.00;;;3.30;;
1837;SDS011;918;50.796;6.772;2023-01-10T10:56:16;10.87;;;3.67;;
1837;SDS011;918;50.796;6.772;2023-01-10T10:58:43;11.23;;;2.70;;
1837;SDS011;918;50.796;6.772;2023-01-10T11:01:11;6.07;;;2.40;;
1837;SDS011;918;50.796;6.772;2023-01-10T11:03:39;10.90;;;4.03;;
1837;SDS011;918;50.796;6.772;2023-01-10T11:06:08;8.23;;;3.00;;
1837;SDS011;918;50.796;6.772;2023-01-10T11:08:34;13.23;;;3.70;;
1837;SDS011;918;50.796;6.772;2023-01-10T11:11:02;13.33;;;3.20;;
1837;SDS011;918;50.796;6.772;2023-01-10T11:15:56;11.70;;;3.47;;
1837;SDS011;918;50.796;6.772;2023-01-10T11:18:23;9.20;;;3.07;;
1837;SDS011;918;50.796;6.772;2023-01-10T11:26:06;10.97;;;3.50;;
1837;SDS011;918;50.796;6.772;2023-01-10T11:28:35;9.30;;;3.37;;
1837;SDS011;918;50.796;6.772;2023-01-10T11:31:00;10.87;;;3.10;;
1837;SDS011;918;50.796;6.772;2023-01-10T11:33:30;6.13;;;3.40;;
1837;SDS011;918;50.796;6.772;2023-01-10T11:38:27;7.97;;;3.43;;
1837;SDS011;918;50.796;6.772;2023-01-10T11:41:02;9.20;;;3.30;;
1837;SDS011;918;50.796;6.772;2023-01-10T11:43:35;9.03;;;3.30;;
1837;SDS011;918;50.796;6.772;2023-01-10T11:48:32;5.97;;;3.17;;
1837;SDS011;918;50.796;6.772;2023-01-10T11:51:20;10.43;;;3.00;;
1837;SDS011;918;50.796;6.772;2023-01-10T11:53:48;9.27;;;2.83;;
1837;SDS011;918;50.796;6.772;2023-01-10T11:56:21;8.53;;;3.60;;
1837;SDS011;918;50.796;6.772;2023-01-10T11:58:48;7.93;;;3.70;;
1837;SDS011;918;50.796;6.772;2023-01-10T12:01:28;7.90;;;2.70;;
1837;SDS011;918;50.796;6.772;2023-01-10T12:03:55;13.63;;;3.00;;
1837;SDS011;918;50.796;6.772;2023-01-10T12:06:21;7.20;;;3.00;;
1837;SDS011;918;50.796;6.772;2023-01-10T12:08:46;9.83;;;3.40;;
1837;SDS011;918;50.796;6.772;2023-01-10T12:13:51;10.40;;;3.53;;
1837;SDS011;918;50.796;6.772;2023-01-10T12:18:46;6.67;;;3.13;;
1837;SDS011;918;50.796;6.772;2023-01-10T12:21:12;6.37;;;2.37;;
1837;SDS011;918;50.796;6.772;2023-01-10T12:23:39;8.40;;;3.10;;
1837;SDS011;918;50.796;6.772;2023-01-10T12:26:08;5.13;;;3.67;;
1837;SDS011;918;50.796;6.772;2023-01-10T12:28:37;7.30;;;3.50;;
1837;SDS011;918;50.796;6.772;2023-01-10T12:31:03;9.50;;;2.87;;
1837;SDS011;918;50.796;6.772;2023-01-10T12:33:35;7.53;;;3.20;;
1837;SDS011;918;50.796;6.772;2023-01-10T12:36:23;11.70;;;2.87;;
1837;SDS011;918;50.796;6.772;2023-01-10T12:39:28;7.13;;;3.07;;
1837;SDS011;918;50.796;6.772;2023-01-10T12:41:59;5.20;;;2.87;;
1837;SDS011;918;50.796;6.772;2023-01-10T12:44:53;5.40;;;3.03;;
1837;SDS011;918;50.796;6.772;2023-01-10T12:47:32;7.53;;;3.30;;
1837;SDS011;918;50.796;6.772;2023-01-10T12:50:16;5.87;;;2.83;;
1837;SDS011;918;50.796;6.772;2023-01-10T12:52:47;7.13;;;3.30;;
1837;SDS011;918;50.796;6.772;2023-01-10T12:55:20;5.93;;;3.20;;
1837;SDS011;918;50.796;6.772;2023-01-10T12:57:49;7.30;;;2.87;;
1837;SDS011;918;50.796;6.772;2023-01-10T13:00:28;6.70;;;2.90;;
1837;SDS011;918;50.796;6.772;2023-01-10T13:02:58;6.87;;;3.07;;
1837;SDS011;918;50.796;6.772;2023-01-10T13:05:25;8.53;;;3.47;;
1837;SDS011;918;50.796;6.772;2023-01-10T13:07:53;10.83;;;3.90;;
1837;SDS011;918;50.796;6.772;2023-01-10T13:10:22;11.83;;;3.00;;
1837;SDS011;918;50.796;6.772;2023-01-10T13:12:52;5.60;;;2.83;;
1837;SDS011;918;50.796;6.772;2023-01-10T13:15:38;7.87;;;3.10;;
1837;SDS011;918;50.796;6.772;2023-01-10T13:21:01;7.03;;;2.60;;
1837;SDS011;918;50.796;6.772;2023-01-10T13:23:46;9.77;;;2.70;;
1837;SDS011;918;50.796;6.772;2023-01-10T13:26:12;6.60;;;2.30;;
1837;SDS011;918;50.796;6.772;2023-01-10T13:28:50;9.03;;;3.50;;
1837;SDS011;918;50.796;6.772;2023-01-10T13:31:32;8.90;;;3.90;;
1837;SDS011;918;50.796;6.772;2023-01-10T13:34:02;7.40;;;2.60;;
1837;SDS011;918;50.796;6.772;2023-01-10T13:36:35;5.63;;;2.70;;
1837;SDS011;918;50.796;6.772;2023-01-10T13:39:03;6.40;;;2.70;;
1837;SDS011;918;50.796;6.772;2023-01-10T13:48:12;15.10;;;4.13;;
1837;SDS011;918;50.796;6.772;2023-01-10T13:52:46;9.80;;;2.97;;
1837;SDS011;918;50.796;6.772;2023-01-10T13:55:20;8.30;;;2.90;;
1837;SDS011;918;50.796;6.772;2023-01-10T14:08:56;6.97;;;2.47;;
1837;SDS011;918;50.796;6.772;2023-01-10T14:11:45;5.93;;;2.20;;
1837;SDS011;918;50.796;6.772;2023-01-10T14:14:25;6.93;;;2.90;;
1837;SDS011;918;50.796;6.772;2023-01-10T14:19:47;10.73;;;3.07;;
1837;SDS011;918;50.796;6.772;2023-01-10T14:22:26;5.70;;;3.27;;
1837;SDS011;918;50.796;6.772;2023-01-10T14:24:53;4.90;;;2.87;;
1837;SDS011;918;50.796;6.772;2023-01-10T14:27:19;7.77;;;2.97;;
1837;SDS011;918;50.796;6.772;2023-01-10T14:29:46;11.27;;;3.27;;
1837;SDS011;918;50.796;6.772;2023-01-10T14:32:17;6.73;;;2.70;;
1837;SDS011;918;50.796;6.772;2023-01-10T14:34:52;13.37;;;3.40;;
1837;SDS011;918;50.796;6.772;2023-01-10T14:37:26;10.90;;;3.33;;
1837;SDS011;918;50.796;6.772;2023-01-10T14:39:54;10.93;;;3.10;;
1837;SDS011;918;50.796;6.772;2023-01-10T14:42:20;6.80;;;2.70;;
1837;SDS011;918;50.796;6.772;2023-01-10T14:44:58;7.67;;;3.10;;
1837;SDS011;918;50.796;6.772;2023-01-10T14:49:54;12.13;;;3.93;;
1837;SDS011;918;50.796;6.772;2023-01-10T14:52:27;10.73;;;2.97;;
1837;SDS011;918;50.796;6.772;2023-01-10T14:57:38;11.40;;;3.70;;
1837;SDS011;918;50.796;6.772;2023-01-10T15:00:10;11.00;;;3.93;;
1837;SDS011;918;50.796;6.772;2023-01-10T15:02:41;10.73;;;4.10;;
1837;SDS011;918;50.796;6.772;2023-01-10T15:05:11;7.00;;;3.00;;
1837;SDS011;918;50.796;6.772;2023-01-10T15:07:40;9.37;;;4.13;;
1837;SDS011;918;50.796;6.772;2023-01-10T15:10:17;6.23;;;2.70;;
1837;SDS011;918;50.796;6.772;2023-01-10T15:12:52;7.90;;;5.40;;
1837;SDS011;918;50.796;6.772;2023-01-10T15:15:21;12.97;;;3.80;;
1837;SDS011;918;50.796;6.772;2023-01-10T15:17:51;12.00;;;3.70;;
1837;SDS011;918;50.796;6.772;2023-01-10T15:20:16;9.83;;;3.10;;
1837;SDS011;918;50.796;6.772;2023-01-10T15:22:45;11.33;;;3.60;;
1837;SDS011;918;50.796;6.772;2023-01-10T15:27:45;6.93;;;2.97;;
1837;SDS011;918;50.796;6.772;2023-01-10T15:30:14;11.57;;;4.23;;
1837;SDS011;918;50.796;6.772;2023-01-10T15:32:43;7.87;;;3.63;;
1837;SDS011;918;50.796;6.772;2023-01-10T15:35:09;8.00;;;3.50;;
1837;SDS011;918;50.796;6.772;2023-01-10T15:37:36;9.50;;;3.73;;
1837;SDS011;918;50.796;6.772;2023-01-10T15:40:05;7.77;;;3.47;;
1837;SDS011;918;50.796;6.772;2023-01-10T15:42:32;7.27;;;3.40;;
1837;SDS011;918;50.796;6.772;2023-01-10T15:45:16;9.33;;;4.07;;
1837;SDS011;918;50.796;6.772;2023-01-10T15:47:53;10.10;;;3.77;;
1837;SDS011;918;50.796;6.772;2023-01-10T15:50:27;12.30;;;3.20;;
1837;SDS011;918;50.796;6.772;2023-01-10T15:53:00;9.83;;;3.00;;
1837;SDS011;918;50.796;6.772;2023-01-10T15:58:13;7.70;;;2.30;;
1837;SDS011;918;50.796;6.772;2023-01-10T16:00:51;6.40;;;2.60;;
1837;SDS011;918;50.796;6.772;2023-01-10T16:03:21;6.07;;;2.80;;
1837;SDS011;918;50.796;6.772;2023-01-10T16:05:52;5.33;;;2.83;;
1837;SDS011;918;50.796;6.772;2023-01-10T16:08:24;7.77;;;3.43;;
1837;SDS011;918;50.796;6.772;2023-01-10T16:10:51;6.33;;;3.07;;
1837;SDS011;918;50.796;6.772;2023-01-10T16:13:18;6.40;;;2.60;;
1837;SDS011;918;50.796;6.772;2023-01-10T16:15:52;5.97;;;2.30;;
1837;SDS011;918;50.796;6.772;2023-01-10T16:18:21;6.13;;;2.60;;
1837;SDS011;918;50.796;6.772;2023-01-10T16:20:47;3.70;;;2.20;;
1837;SDS011;918;50.796;6.772;2023-01-10T16:23:16;4.50;;;1.83;;
1837;SDS011;918;50.796;6.772;2023-01-10T16:25:44;2.13;;;1.50;;
1837;SDS011;918;50.796;6.772;2023-01-10T16:28:11;6.10;;;2.03;;
1837;SDS011;918;50.796;6.772;2023-01-10T16:30:38;3.30;;;1.57;;
1837;SDS011;918;50.796;6.772;2023-01-10T16:33:19;3.73;;;2.03;;
1837;SDS011;918;50.796;6.772;2023-01-10T16:35:54;5.57;;;2.50;;
1837;SDS011;918;50.796;6.772;2023-01-10T16:38:20;2.13;;;1.40;;
1837;SDS011;918;50.796;6.772;2023-01-10T16:40:47;5.73;;;1.90;;
1837;SDS011;918;50.796;6.772;2023-01-10T16:43:15;2.90;;;2.17;;
1837;SDS011;918;50.796;6.772;2023-01-10T16:48:09;5.40;;;2.00;;
1837;SDS011;918;50.796;6.772;2023-01-10T16:50:35;3.07;;;1.60;;
1837;SDS011;918;50.796;6.772;2023-01-10T16:53:00;3.33;;;2.07;;
1837;SDS011;918;50.796;6.772;2023-01-10T16:55:28;6.57;;;1.93;;
1837;SDS011;918;50.796;6.772;2023-01-10T16:58:00;2.40;;;1.73;;
1837;SDS011;918;50.796;6.772;2023-01-10T17:00:25;3.17;;;1.80;;
1837;SDS011;918;50.796;6.772;2023-01-10T17:02:51;2.10;;;1.60;;
1837;SDS011;918;50.796;6.772;2023-01-10T17:05:16;2.43;;;1.40;;
1837;SDS011;918;50.796;6.772;2023-01-10T17:07:42;2.30;;;1.10;;
1837;SDS011;918;50.796;6.772;2023-01-10T17:10:07;1.90;;;1.20;;
1837;SDS011;918;50.796;6.772;2023-01-10T17:12:33;1.63;;;1.30;;
1837;SDS011;918;50.796;6.772;2023-01-10T17:15:00;3.57;;;2.20;;
1837;SDS011;918;50.796;6.772;2023-01-10T17:17:28;3.23;;;1.70;;
1837;SDS011;918;50.796;6.772;2023-01-10T17:19:53;1.30;;;1.20;;
1837;SDS011;918;50.796;6.772;2023-01-10T17:22:18;2.20;;;1.23;;
1837;SDS011;918;50.796;6.772;2023-01-10T17:24:44;2.90;;;1.57;;
1837;SDS011;918;50.796;6.772;2023-01-10T17:27:09;2.20;;;1.67;;